Time;durP1;ratioP1;P1;durP2;ratioP2;P2;SDS_P1;SDS_P2;PMS_P1;PMS_P2;Temp;Humidity;BMP_temperature;BMP_pressure;BME280_temperature;BME280_humidity;BME280_pressure;Samples;Min_cycle;Max_cycle;Signal;HPM_P1;HPM_P2
2023/10/06 00:03:06;;;;;;;8.23;2.70;;;10.50;1.00;;;;;;6271192;22;20402;-65
2023/10/06 00:05:34;;;;;;;8.90;3.30;;;10.40;1.00;;;;;;6271204;22;20418;-65
2023/10/06 00:08:00;;;;;;;7.72;2.88;;;10.40;1.00;;;;;;6270921;22;20376;-65
2023/10/06 00:10:31;;;;;;;8.60;3.03;;;10.40;1.00;;;;;;6270751;22;20697;-65
2023/10/06 00:12:59;;;;;;;8.75;2.50;;;10.40;1.00;;;;;;6270610;22;20360;-65
2023/10/06 00:15:44;;;;;;;8.80;2.50;;;10.40;1.00;;;;;;6270977;22;20355;-65
2023/10/06 00:18:16;;;;;;;10.70;2.67;;;10.30;1.00;;;;;;6270737;22;20445;-65
2023/10/06 00:20:48;;;;;;;12.25;3.63;;;10.30;1.00;;;;;;6270921;22;20360;-65
2023/10/06 00:23:14;;;;;;;11.00;3.05;;;10.20;1.00;;;;;;6270597;22;20451;-63
2023/10/06 00:25:44;;;;;;;8.55;2.88;;;10.20;1.00;;;;;;6270839;22;20371;-64
2023/10/06 00:28:19;;;;;;;11.27;2.67;;;10.20;1.00;;;;;;6270717;22;20403;-64
2023/10/06 00:30:48;;;;;;;7.93;2.35;;;10.20;1.00;;;;;;6270832;22;20433;-64
2023/10/06 00:33:15;;;;;;;8.23;3.53;;;10.20;1.00;;;;;;6270792;22;20364;-65
2023/10/06 00:35:41;;;;;;;8.43;3.63;;;10.30;1.00;;;;;;6271294;22;20392;-65
2023/10/06 00:38:16;;;;;;;8.75;2.75;;;10.30;1.00;;;;;;6270682;22;20394;-65
2023/10/06 00:40:50;;;;;;;9.50;2.90;;;10.30;1.00;;;;;;6270654;22;20352;-65
2023/10/06 00:43:28;;;;;;;8.60;2.20;;;10.30;1.00;;;;;;6270519;22;20356;-65
2023/10/06 00:45:54;;;;;;;11.02;3.22;;;10.20;1.00;;;;;;6270319;22;20348;-65
2023/10/06 00:48:20;;;;;;;10.20;3.37;;;10.20;1.00;;;;;;6271220;22;20393;-65
2023/10/06 00:50:45;;;;;;;9.70;2.80;;;10.10;1.00;;;;;;6270603;22;20356;-65
2023/10/06 00:53:13;;;;;;;8.65;2.25;;;10.00;1.00;;;;;;6271227;22;20678;-65
2023/10/06 00:55:40;;;;;;;8.25;3.83;;;10.00;1.00;;;;;;6270598;22;20720;-65
2023/10/06 00:58:11;;;;;;;8.18;2.90;;;10.00;1.00;;;;;;6270407;22;20688;-65
2023/10/06 01:00:38;;;;;;;9.63;3.03;;;10.00;1.00;;;;;;6270476;22;20443;-64
2023/10/06 01:03:14;;;;;;;9.48;3.22;;;10.10;1.00;;;;;;6270839;22;20356;-65
2023/10/06 01:05:45;;;;;;;7.80;2.65;;;10.00;1.00;;;;;;6270791;22;20399;-65
2023/10/06 01:08:11;;;;;;;9.23;2.78;;;10.00;1.00;;;;;;6270489;22;20372;-65
2023/10/06 01:10:40;;;;;;;6.73;2.60;;;10.10;1.00;;;;;;6269634;22;21401;-65
2023/10/06 01:13:12;;;;;;;6.75;2.15;;;10.00;1.00;;;;;;6270852;22;20435;-65
2023/10/06 01:15:55;;;;;;;7.20;2.33;;;9.90;1.00;;;;;;6270276;22;20371;-65
2023/10/06 01:18:25;;;;;;;7.77;3.00;;;9.90;1.00;;;;;;6270882;22;20394;-65
2023/10/06 01:20:50;;;;;;;10.97;2.80;;;9.90;1.00;;;;;;6271686;22;20364;-65
2023/10/06 01:23:22;;;;;;;7.30;2.63;;;9.90;1.00;;;;;;6270514;22;20439;-65
2023/10/06 01:25:59;;;;;;;8.48;3.03;;;9.80;1.00;;;;;;6270533;22;20365;-65
2023/10/06 01:28:25;;;;;;;17.48;3.83;;;9.90;1.00;;;;;;6269751;22;20391;-65
2023/10/06 01:30:51;;;;;;;8.25;3.05;;;9.80;1.00;;;;;;6270621;22;20372;-65
2023/10/06 01:33:17;;;;;;;8.85;2.80;;;9.60;1.00;;;;;;6271208;22;20840;-65
2023/10/06 01:35:43;;;;;;;8.30;3.10;;;9.60;1.00;;;;;;6270370;22;20392;-65
2023/10/06 01:38:19;;;;;;;7.43;2.73;;;9.60;1.00;;;;;;6270347;22;20371;-65
2023/10/06 01:40:50;;;;;;;7.45;3.30;;;9.60;1.00;;;;;;6270382;22;20360;-65
2023/10/06 01:43:22;;;;;;;8.20;2.47;;;9.60;1.00;;;;;;6270091;22;20344;-65
2023/10/06 01:45:50;;;;;;;7.22;2.67;;;9.50;1.00;;;;;;6271238;22;20410;-65
2023/10/06 01:50:48;;;;;;;7.07;2.67;;;9.50;1.00;;;;;;6276974;22;20884;-65
2023/10/06 01:53:18;;;;;;;7.60;2.42;;;9.50;1.00;;;;;;6270192;22;20431;-65
2023/10/06 01:55:55;;;;;;;8.80;2.50;;;9.50;1.00;;;;;;6271456;22;20372;-65
2023/10/06 01:58:21;;;;;;;7.20;3.17;;;9.50;1.00;;;;;;6271282;22;20348;-65
2023/10/06 02:00:48;;;;;;;7.53;3.23;;;9.40;1.00;;;;;;6270474;22;20376;-65
2023/10/06 02:03:17;;;;;;;9.00;3.55;;;9.40;1.00;;;;;;6270183;22;20458;-65
2023/10/06 02:05:43;;;;;;;11.17;3.50;;;9.50;1.00;;;;;;6270425;22;20428;-65
2023/10/06 02:08:10;;;;;;;8.60;4.25;;;9.50;1.00;;;;;;6270289;22;20660;-65
2023/10/06 02:10:36;;;;;;;7.32;3.15;;;9.50;1.00;;;;;;6271461;22;20754;-65
2023/10/06 02:13:04;;;;;;;7.70;3.20;;;9.60;1.00;;;;;;6271305;22;20447;-65
2023/10/06 02:15:31;;;;;;;10.88;3.33;;;9.50;1.00;;;;;;6271601;22;20451;-65
2023/10/06 02:17:57;;;;;;;7.95;2.30;;;9.50;1.00;;;;;;6271828;22;20697;-65
2023/10/06 02:22:52;;;;;;;9.50;2.83;;;9.20;1.00;;;;;;6272281;22;20674;-65
2023/10/06 02:25:20;;;;;;;6.63;2.92;;;9.20;1.00;;;;;;6272558;22;20372;-64
2023/10/06 02:27:47;;;;;;;7.30;3.30;;;9.20;1.00;;;;;;6271339;22;20375;-65
2023/10/06 02:30:15;;;;;;;11.35;2.30;;;9.20;1.00;;;;;;6271632;22;20463;-65
2023/10/06 02:32:42;;;;;;;18.97;3.97;;;9.30;1.00;;;;;;6271695;22;20386;-65
2023/10/06 02:35:08;;;;;;;13.52;4.45;;;9.40;1.00;;;;;;6271704;22;20360;-65
2023/10/06 02:37:33;;;;;;;8.63;4.07;;;9.40;1.00;;;;;;6244208;22;20529;-65
2023/10/06 02:39:59;;;;;;;9.27;3.50;;;9.40;1.00;;;;;;6271738;22;20364;-65
2023/10/06 02:42:25;;;;;;;11.75;4.82;;;9.30;1.00;;;;;;6271254;22;20390;-65
2023/10/06 02:44:51;;;;;;;10.57;3.77;;;9.20;1.00;;;;;;6272275;22;20410;-65
2023/10/06 02:47:17;;;;;;;10.90;4.88;;;9.10;1.00;;;;;;6272120;22;20828;-65
2023/10/06 02:49:55;;;;;;;10.20;3.75;;;9.10;1.00;;;;;;6271264;22;20384;-65
2023/10/06 02:52:29;;;;;;;9.27;3.73;;;9.10;10.30;;;;;;6272464;22;20360;-65
2023/10/06 02:55:08;;;;;;;10.60;4.72;;;9.10;24.90;;;;;;6271539;22;20374;-65
2023/10/06 02:57:35;;;;;;;11.23;4.43;;;9.10;29.40;;;;;;6271281;22;20680;-65
2023/10/06 03:02:57;;;;;;;10.70;3.85;;;9.20;36.00;;;;;;6277878;22;20725;-64
2023/10/06 03:05:32;;;;;;;11.70;4.20;;;9.10;48.90;;;;;;6270989;22;20447;-64
2023/10/06 03:08:00;;;;;;;11.65;4.47;;;9.00;54.60;;;;;;6271278;22;20344;-65
2023/10/06 03:10:29;;;;;;;10.68;3.67;;;9.00;64.00;;;;;;6271203;22;20406;-65
2023/10/06 03:12:57;;;;;;;8.75;3.80;;;9.10;66.30;;;;;;6271897;22;20352;-65
2023/10/06 03:15:34;;;;;;;12.40;4.15;;;9.10;54.20;;;;;;6270890;22;20363;-64
2023/10/06 03:17:59;;;;;;;11.50;4.20;;;9.20;47.90;;;;;;6271577;22;20429;-64
2023/10/06 03:20:33;;;;;;;10.18;4.40;;;9.10;64.80;;;;;;6270976;22;20349;-65
2023/10/06 03:23:04;;;;;;;9.10;4.80;;;9.10;72.70;;;;;;6271504;22;20809;-65
2023/10/06 03:25:34;;;;;;;11.43;4.05;;;9.10;66.50;;;;;;6270624;22;20375;-65
2023/10/06 03:28:04;;;;;;;14.40;4.78;;;9.10;57.70;;;;;;6271145;22;20360;-65
2023/10/06 03:30:34;;;;;;;10.02;4.72;;;9.10;69.70;;;;;;6271434;22;20360;-64
2023/10/06 03:33:03;;;;;;;9.37;4.00;;;9.10;65.90;;;;;;6271290;22;20362;-64
2023/10/06 03:35:54;;;;;;;12.27;5.10;;;9.20;54.50;;;;;;6271212;22;20371;-64
2023/10/06 03:43:13;;;;;;;10.30;4.67;;;9.00;47.90;;;;;;6272100;22;20880;-65
2023/10/06 03:45:40;;;;;;;9.43;4.75;;;9.00;50.90;;;;;;6271331;22;20398;-65
2023/10/06 03:48:12;;;;;;;10.00;4.25;;;9.00;55.00;;;;;;6270908;22;20429;-65
2023/10/06 03:50:39;;;;;;;11.02;4.97;;;9.00;50.60;;;;;;6271754;22;20357;-65
2023/10/06 03:53:09;;;;;;;10.27;4.22;;;9.00;52.80;;;;;;6271470;22;20360;-65
2023/10/06 03:55:42;;;;;;;10.02;4.10;;;9.00;50.50;;;;;;6271133;22;20363;-65
2023/10/06 03:58:10;;;;;;;10.57;4.55;;;8.90;55.80;;;;;;6269902;22;21113;-65
2023/10/06 04:00:38;;;;;;;12.60;4.85;;;8.90;90.40;;;;;;6270521;22;20367;-65
2023/10/06 04:03:14;;;;;;;10.05;4.05;;;8.70;93.20;;;;;;6269741;22;20409;-64
2023/10/06 04:05:41;;;;;;;11.70;3.83;;;8.80;99.90;;;;;;6270081;22;20494;-64
2023/10/06 04:08:15;;;;;;;8.40;4.07;;;8.80;99.90;;;;;;6269325;22;20381;-64
2023/10/06 04:10:42;;;;;;;10.63;3.88;;;8.70;99.90;;;;;;6269356;22;20374;-65
2023/10/06 04:13:09;;;;;;;11.37;4.77;;;8.80;99.90;;;;;;6269848;22;20439;-64
2023/10/06 04:15:38;;;;;;;12.00;5.10;;;8.80;99.90;;;;;;6269938;22;20352;-64
2023/10/06 04:18:10;;;;;;;9.25;4.18;;;8.70;99.90;;;;;;6269879;22;20360;-65
2023/10/06 04:20:41;;;;;;;11.20;4.50;;;8.80;99.90;;;;;;6271197;22;20384;-64
2023/10/06 04:23:07;;;;;;;10.90;4.90;;;8.80;99.90;;;;;;6270902;22;20386;-64
2023/10/06 04:25:38;;;;;;;11.88;3.90;;;8.80;99.90;;;;;;6270476;22;20383;-64
2023/10/06 04:28:11;;;;;;;11.48;4.53;;;8.80;99.90;;;;;;6270517;22;20413;-65
2023/10/06 04:30:44;;;;;;;12.70;4.32;;;8.80;99.90;;;;;;6270331;22;20363;-65
2023/10/06 04:33:14;;;;;;;9.63;4.18;;;8.90;99.90;;;;;;6270588;22;20427;-65
2023/10/06 04:35:52;;;;;;;10.63;3.60;;;8.90;99.90;;;;;;6270350;22;20431;-65
2023/10/06 04:38:19;;;;;;;11.95;4.50;;;9.00;99.90;;;;;;6270587;22;20368;-65
2023/10/06 04:40:46;;;;;;;13.13;5.68;;;9.10;99.90;;;;;;6269964;22;20352;-65
2023/10/06 04:43:13;;;;;;;10.27;4.00;;;9.20;99.90;;;;;;6270628;22;20356;-65
2023/10/06 04:45:39;;;;;;;12.68;4.55;;;9.30;98.80;;;;;;6270154;22;20414;-64
2023/10/06 04:48:07;;;;;;;9.05;4.20;;;9.30;93.10;;;;;;6270214;22;20432;-65
2023/10/06 04:50:34;;;;;;;8.73;3.83;;;9.20;68.30;;;;;;6269788;22;20382;-65
2023/10/06 04:53:00;;;;;;;12.93;4.65;;;9.20;40.80;;;;;;6270298;22;20360;-65
2023/10/06 04:55:26;;;;;;;10.00;3.65;;;9.10;33.80;;;;;;6270036;22;20430;-65
2023/10/06 04:57:52;;;;;;;11.33;3.17;;;9.20;41.30;;;;;;6270741;22;20723;-65
2023/10/06 05:00:21;;;;;;;8.27;3.20;;;9.10;44.40;;;;;;6271259;22;20840;-65
2023/10/06 05:02:50;;;;;;;7.97;4.00;;;9.00;43.80;;;;;;6270550;22;20360;-65
2023/10/06 05:05:20;;;;;;;11.43;4.60;;;9.00;43.20;;;;;;6270769;22;20355;-66
2023/10/06 05:07:48;;;;;;;10.40;3.70;;;9.10;24.40;;;;;;6270657;22;20677;-67
2023/10/06 05:10:14;;;;;;;11.82;4.03;;;9.00;20.30;;;;;;6270420;22;20925;-68
2023/10/06 05:12:42;;;;;;;11.70;4.20;;;8.90;21.80;;;;;;6270935;22;20364;-67
2023/10/06 05:15:09;;;;;;;10.88;4.40;;;9.00;21.50;;;;;;6270276;22;20366;-67
2023/10/06 05:17:35;;;;;;;9.82;4.30;;;9.10;18.00;;;;;;6270499;22;20714;-67
2023/10/06 05:20:04;;;;;;;8.02;3.15;;;9.10;8.90;;;;;;6271050;22;20384;-67
2023/10/06 05:22:31;;;;;;;10.30;3.97;;;9.10;9.60;;;;;;6269131;22;20405;-67
2023/10/06 05:24:56;;;;;;;8.30;4.05;;;9.10;21.40;;;;;;6269834;22;20447;-67
2023/10/06 05:27:22;;;;;;;13.07;4.70;;;9.20;15.60;;;;;;6270612;22;20372;-67
2023/10/06 05:29:50;;;;;;;9.15;4.25;;;9.10;8.60;;;;;;6271982;22;20385;-67
2023/10/06 05:32:16;;;;;;;8.90;4.10;;;9.10;7.20;;;;;;6272321;22;20375;-67
2023/10/06 05:34:42;;;;;;;11.68;5.20;;;9.20;8.70;;;;;;6272141;22;20885;-67
2023/10/06 05:37:08;;;;;;;10.17;4.30;;;9.20;8.30;;;;;;6271648;22;20396;-68
2023/10/06 05:39:34;;;;;;;9.03;4.50;;;9.30;1.00;;;;;;6244863;22;20526;-67
2023/10/06 05:42:02;;;;;;;9.45;4.30;;;9.30;1.00;;;;;;6272225;22;20740;-67
2023/10/06 05:44:28;;;;;;;10.50;3.90;;;9.20;1.00;;;;;;6272069;22;20369;-67
2023/10/06 05:46:54;;;;;;;11.47;5.10;;;9.20;18.60;;;;;;6272028;22;20364;-67
2023/10/06 05:49:21;;;;;;;12.57;4.70;;;9.20;29.00;;;;;;6272753;22;20390;-67
2023/10/06 05:51:49;;;;;;;10.05;4.75;;;9.20;29.50;;;;;;6272157;22;20372;-67
2023/10/06 05:54:21;;;;;;;11.25;4.60;;;9.30;30.00;;;;;;6271714;22;20730;-68
2023/10/06 05:56:48;;;;;;;10.65;5.68;;;9.40;35.40;;;;;;6272894;22;20684;-68
2023/10/06 05:59:18;;;;;;;11.80;4.50;;;9.30;23.10;;;;;;6272225;22;20360;-67
2023/10/06 06:01:46;;;;;;;12.73;4.40;;;9.20;48.90;;;;;;6272375;22;20827;-68
2023/10/06 06:04:12;;;;;;;11.50;5.07;;;9.30;53.00;;;;;;6270805;22;20486;-67
2023/10/06 06:06:37;;;;;;;19.45;5.38;;;9.60;94.20;;;;;;6270082;22;20387;-67
2023/10/06 06:09:14;;;;;;;14.17;5.20;;;10.00;79.90;;;;;;6269603;22;20384;-68
2023/10/06 06:11:39;;;;;;;14.75;5.65;;;10.60;57.70;;;;;;6271347;22;20359;-68
2023/10/06 06:14:05;;;;;;;15.03;6.27;;;11.30;1.00;;;;;;6271482;22;20364;-67
2023/10/06 06:16:31;;;;;;;14.90;5.30;;;12.10;1.00;;;;;;6271523;22;20352;-68
2023/10/06 06:18:57;;;;;;;14.13;5.30;;;12.70;99.90;;;;;;6271026;22;20367;-68
2023/10/06 06:21:24;;;;;;;14.63;5.20;;;13.20;1.00;;;;;;6271294;22;20578;-68
2023/10/06 06:23:50;;;;;;;10.32;5.43;;;13.80;99.90;;;;;;6271969;22;20532;-68
2023/10/06 06:26:17;;;;;;;11.82;4.20;;;13.90;99.90;;;;;;6271381;22;20368;-68
2023/10/06 06:28:45;;;;;;;11.43;4.38;;;14.10;68.10;;;;;;6271535;22;20388;-67
2023/10/06 06:31:18;;;;;;;14.13;5.10;;;14.30;1.00;;;;;;6271112;22;20410;-68
2023/10/06 06:33:47;;;;;;;10.27;4.40;;;14.80;99.90;;;;;;6271485;22;20368;-67
2023/10/06 06:36:13;;;;;;;12.65;4.80;;;14.90;1.00;;;;;;6271134;22;20402;-68
2023/10/06 06:38:39;;;;;;;10.00;4.20;;;15.60;1.00;;;;;;6271621;22;20366;-68
2023/10/06 06:41:05;;;;;;;10.98;4.22;;;16.40;99.90;;;;;;6271382;22;20356;-68
2023/10/06 06:43:31;;;;;;;10.07;4.32;;;16.80;6.20;;;;;;6271665;22;20739;-68
2023/10/06 06:45:58;;;;;;;10.65;4.70;;;17.40;1.00;;;;;;6271682;22;20368;-68
2023/10/06 06:48:24;;;;;;;9.55;3.60;;;17.90;1.00;;;;;;6270831;22;20394;-68
2023/10/06 06:50:52;;;;;;;10.35;4.18;;;18.30;1.00;;;;;;6271618;22;20352;-68
2023/10/06 06:53:18;;;;;;;10.57;4.70;;;18.50;1.00;;;;;;6271129;22;20372;-68
2023/10/06 06:55:44;;;;;;;9.13;3.75;;;18.50;1.00;;;;;;6271381;22;20417;-67
2023/10/06 06:58:11;;;;;;;10.40;3.88;;;18.70;1.00;;;;;;6271526;22;20407;-68
2023/10/06 07:00:39;;;;;;;9.52;4.03;;;18.90;1.00;;;;;;6271758;22;20800;-68
2023/10/06 07:03:05;;;;;;;10.48;3.90;;;19.20;1.00;;;;;;6271060;22;20731;-68
2023/10/06 07:05:34;;;;;;;14.23;4.37;;;18.70;1.00;;;;;;6271010;22;20809;-68
2023/10/06 07:08:01;;;;;;;9.65;4.13;;;18.90;1.00;;;;;;6271513;22;20359;-68
2023/10/06 07:10:26;;;;;;;9.82;3.70;;;18.70;99.90;;;;;;6271570;22;20417;-67
2023/10/06 07:12:54;;;;;;;9.80;4.00;;;18.60;1.00;;;;;;6271851;22;20361;-67
2023/10/06 07:15:20;;;;;;;10.20;4.20;;;18.50;1.00;;;;;;6272293;22;20369;-68
2023/10/06 07:17:49;;;;;;;15.68;4.53;;;18.50;1.00;;;;;;6271948;22;20406;-68
2023/10/06 07:20:19;;;;;;;13.32;4.70;;;18.90;1.00;;;;;;6271778;22;20696;-69
2023/10/06 07:22:46;;;;;;;9.57;4.10;;;19.20;99.90;;;;;;6271998;22;20360;-68
2023/10/06 07:25:15;;;;;;;12.90;4.38;;;19.50;99.90;;;;;;6244436;22;20376;-68
2023/10/06 07:27:48;;;;;;;11.65;4.25;;;19.70;99.90;;;;;;6271288;22;20816;-68
2023/10/06 07:30:14;;;;;;;10.90;4.40;;;20.00;99.90;;;;;;6271329;22;20416;-68
2023/10/06 07:32:44;;;;;;;13.45;4.22;;;20.60;99.90;;;;;;6271577;22;20438;-68
2023/10/06 07:35:14;;;;;;;10.05;4.00;;;21.50;99.90;;;;;;6271273;22;20370;-68
2023/10/06 07:37:44;;;;;;;10.77;4.30;;;22.40;99.90;;;;;;6270902;22;20348;-68
2023/10/06 07:40:14;;;;;;;11.20;4.40;;;22.90;99.90;;;;;;6271467;22;20360;-68
2023/10/06 07:42:47;;;;;;;11.17;5.00;;;22.80;99.90;;;;;;6271916;22;20356;-69
2023/10/06 07:45:13;;;;;;;13.80;5.03;;;23.20;99.90;;;;;;6272009;22;20360;-69
2023/10/06 07:47:40;;;;;;;13.60;4.60;;;23.50;99.90;;;;;;6272425;22;20812;-69
2023/10/06 07:50:06;;;;;;;17.95;5.22;;;24.50;99.90;;;;;;6272029;22;20753;-69
2023/10/06 07:52:36;;;;;;;14.50;4.70;;;24.40;99.90;;;;;;6271871;22;20498;-69
2023/10/06 07:55:09;;;;;;;9.90;4.93;;;24.60;99.90;;;;;;6272054;22;20352;-69
2023/10/06 07:57:42;;;;;;;11.40;5.50;;;25.10;99.90;;;;;;6272184;22;20384;-69
2023/10/06 08:00:13;;;;;;;11.18;4.93;;;25.20;99.90;;;;;;6271654;22;20356;-69
2023/10/06 08:02:39;;;;;;;9.82;4.40;;;25.50;99.90;;;;;;6271126;22;20417;-68
2023/10/06 08:05:12;;;;;;;11.45;4.90;;;25.60;99.90;;;;;;6271857;22;20728;-68
2023/10/06 08:07:44;;;;;;;9.98;3.92;;;26.10;99.90;;;;;;6271855;22;20493;-69
2023/10/06 08:10:14;;;;;;;10.68;4.40;;;26.60;99.90;;;;;;6271683;22;20372;-68
2023/10/06 08:12:44;;;;;;;11.60;4.88;;;26.10;99.90;;;;;;6272182;22;20447;-68
2023/10/06 08:15:11;;;;;;;10.73;4.80;;;26.30;99.90;;;;;;6271903;22;20348;-68
2023/10/06 08:17:36;;;;;;;9.30;4.43;;;26.20;99.90;;;;;;6272443;22;20356;-69
2023/10/06 08:20:05;;;;;;;10.73;4.43;;;27.10;99.90;;;;;;6272832;22;20370;-67
2023/10/06 08:22:33;;;;;;;10.32;4.38;;;27.10;99.90;;;;;;6271442;22;20364;-68
2023/10/06 08:25:02;;;;;;;14.00;5.43;;;26.90;99.90;;;;;;6271346;22;20684;-68
2023/10/06 08:27:28;;;;;;;10.73;4.50;;;26.50;99.90;;;;;;6244208;22;20372;-68
2023/10/06 08:29:54;;;;;;;11.15;4.75;;;24.80;99.90;;;;;;6271026;22;20392;-68
2023/10/06 08:32:21;;;;;;;11.75;4.13;;;24.80;99.90;;;;;;6271615;22;20734;-68
2023/10/06 08:34:47;;;;;;;11.88;4.80;;;25.10;99.90;;;;;;6271056;22;20392;-69
2023/10/06 08:37:14;;;;;;;10.30;4.50;;;24.80;99.90;;;;;;6271146;22;20820;-69
2023/10/06 08:39:40;;;;;;;11.80;5.05;;;25.00;99.90;;;;;;6270782;22;20395;-69
2023/10/06 08:42:14;;;;;;;13.20;5.22;;;24.90;99.90;;;;;;6270964;22;20796;-69
2023/10/06 08:44:39;;;;;;;10.38;4.57;;;25.40;99.90;;;;;;6270739;22;20405;-69
2023/10/06 08:47:09;;;;;;;10.85;4.40;;;26.70;99.90;;;;;;6270321;22;20368;-69
2023/10/06 08:49:36;;;;;;;9.88;4.28;;;27.40;99.90;;;;;;6270782;22;20379;-68
2023/10/06 08:52:04;;;;;;;10.53;4.47;;;27.60;99.90;;;;;;6271135;22;20426;-69
2023/10/06 08:54:31;;;;;;;10.18;4.78;;;28.20;99.90;;;;;;6270966;22;20439;-68
2023/10/06 08:56:57;;;;;;;13.52;4.90;;;29.50;99.90;;;;;;6271144;22;20786;-68
2023/10/06 08:59:22;;;;;;;11.30;5.03;;;28.80;99.90;;;;;;6270606;22;20364;-69
2023/10/06 09:01:49;;;;;;;10.63;4.00;;;29.20;99.90;;;;;;6271017;22;20641;-69
2023/10/06 09:04:14;;;;;;;10.85;4.22;;;28.40;99.90;;;;;;6271645;22;20418;-69
2023/10/06 09:07:11;;;;;;;8.27;4.05;;;27.50;99.90;;;;;;6272230;22;20360;-69
2023/10/06 09:09:37;;;;;;;10.37;4.77;;;27.20;99.90;;;;;;6271899;22;20836;-69
2023/10/06 09:12:03;;;;;;;11.50;4.43;;;27.60;99.90;;;;;;6271430;22;20363;-68
2023/10/06 09:14:30;;;;;;;12.00;4.63;;;28.10;99.90;;;;;;6271748;22;20433;-68
2023/10/06 09:17:01;;;;;;;9.65;4.00;;;27.00;99.90;;;;;;6270271;22;20356;-68
2023/10/06 09:19:46;;;;;;;13.20;4.95;;;26.40;99.90;;;;;;6272310;22;20803;-69
2023/10/06 09:22:11;;;;;;;13.75;5.20;;;25.90;99.90;;;;;;6272150;22;20369;-69
2023/10/06 09:24:39;;;;;;;11.98;4.63;;;27.00;99.90;;;;;;6271890;22;20353;-68
2023/10/06 09:27:21;;;;;;;10.98;4.13;;;26.90;99.90;;;;;;6271643;22;20441;-68
2023/10/06 09:29:47;;;;;;;13.88;5.15;;;27.60;99.90;;;;;;6272099;22;20387;-68
2023/10/06 09:32:20;;;;;;;11.38;4.75;;;29.10;99.90;;;;;;6271764;22;20787;-68
2023/10/06 09:34:46;;;;;;;10.18;4.22;;;29.10;99.90;;;;;;6271810;22;20865;-68
2023/10/06 09:37:21;;;;;;;9.60;4.82;;;29.20;99.90;;;;;;6272085;22;20391;-68
2023/10/06 09:40:20;;;;;;;10.25;4.00;;;28.50;99.90;;;;;;6271342;22;20363;-68
2023/10/06 09:42:48;;;;;;;11.02;4.63;;;27.60;99.90;;;;;;6271749;22;20352;-68
2023/10/06 09:45:21;;;;;;;11.20;4.70;;;27.10;99.90;;;;;;6271722;22;20436;-67
2023/10/06 09:47:51;;;;;;;10.85;4.38;;;27.20;99.90;;;;;;6271551;22;20839;-68
2023/10/06 09:50:21;;;;;;;11.60;4.10;;;27.50;99.90;;;;;;6272065;22;20388;-68
2023/10/06 09:52:48;;;;;;;10.50;4.75;;;27.60;99.90;;;;;;6272057;22;20387;-68
2023/10/06 09:55:19;;;;;;;9.80;3.88;;;27.40;99.90;;;;;;6271769;22;20367;-68
2023/10/06 09:57:47;;;;;;;11.02;3.80;;;27.40;99.90;;;;;;6271442;22;20344;-68
2023/10/06 10:00:17;;;;;;;10.85;4.00;;;27.40;99.90;;;;;;6271167;22;20356;-68
2023/10/06 10:02:48;;;;;;;10.27;4.18;;;28.20;99.90;;;;;;6271165;22;20353;-68
2023/10/06 10:05:18;;;;;;;10.83;3.70;;;28.30;99.90;;;;;;6271112;22;20362;-68
2023/10/06 10:07:48;;;;;;;9.93;3.90;;;28.50;99.90;;;;;;6271594;22;20364;-68
2023/10/06 10:10:15;;;;;;;9.65;4.18;;;28.70;99.90;;;;;;6271714;22;20441;-68
2023/10/06 10:13:20;;;;;;;10.00;3.87;;;28.10;99.90;;;;;;6271560;22;20821;-68
2023/10/06 10:16:13;;;;;;;8.55;3.58;;;27.00;99.90;;;;;;6270831;22;20405;-67
2023/10/06 10:18:44;;;;;;;10.23;3.90;;;27.30;99.90;;;;;;6273919;22;20360;-68
2023/10/06 10:21:12;;;;;;;11.13;3.72;;;27.90;99.90;;;;;;6272931;22;20348;-67
2023/10/06 10:23:41;;;;;;;13.35;4.13;;;28.00;99.90;;;;;;6273438;22;20761;-67
2023/10/06 10:26:18;;;;;;;11.30;3.42;;;26.60;99.90;;;;;;6274326;22;20399;-68
2023/10/06 10:29:04;;;;;;;9.25;3.47;;;26.20;99.90;;;;;;6273213;22;20715;-67
2023/10/06 10:31:36;;;;;;;11.13;4.20;;;26.30;99.90;;;;;;6272055;22;20463;-68
2023/10/06 10:34:02;;;;;;;10.60;3.90;;;26.70;99.90;;;;;;6271993;22;20838;-68
2023/10/06 10:36:27;;;;;;;10.80;4.00;;;26.70;99.90;;;;;;6271918;22;20360;-68
2023/10/06 10:38:59;;;;;;;9.53;3.77;;;26.70;99.90;;;;;;6271777;22;20835;-68
2023/10/06 10:41:29;;;;;;;11.70;3.87;;;27.20;99.90;;;;;;6271748;22;20820;-68
2023/10/06 10:43:56;;;;;;;11.88;4.25;;;27.40;99.90;;;;;;6271341;22;20357;-68
2023/10/06 10:46:47;;;;;;;11.50;3.50;;;27.90;99.90;;;;;;6272089;22;20452;-68
2023/10/06 10:49:13;;;;;;;9.88;3.90;;;27.80;99.90;;;;;;6271952;22;20479;-69
2023/10/06 10:51:56;;;;;;;10.32;4.28;;;27.60;99.90;;;;;;6271206;22;20893;-68
2023/10/06 10:54:44;;;;;;;9.60;3.90;;;27.40;99.90;;;;;;6272590;22;20372;-69
2023/10/06 10:57:14;;;;;;;11.50;4.00;;;26.90;99.90;;;;;;6271018;22;20368;-68
2023/10/06 11:00:11;;;;;;;9.90;4.03;;;26.40;99.90;;;;;;6271458;22;20438;-69
2023/10/06 11:03:01;;;;;;;10.30;4.13;;;26.40;99.90;;;;;;6271662;22;20773;-69
2023/10/06 11:05:27;;;;;;;9.90;4.70;;;26.60;99.90;;;;;;6271591;22;20364;-68
2023/10/06 11:08:01;;;;;;;9.82;3.50;;;27.10;99.90;;;;;;6272104;22;20352;-68
2023/10/06 11:10:27;;;;;;;9.32;4.13;;;27.20;99.90;;;;;;6271520;22;20368;-68
2023/10/06 11:13:21;;;;;;;9.80;3.85;;;27.20;99.90;;;;;;6271724;22;20352;-69
2023/10/06 11:15:49;;;;;;;9.82;4.00;;;27.50;99.90;;;;;;6271106;22;20661;-68
2023/10/06 11:18:17;;;;;;;10.75;4.35;;;26.80;99.90;;;;;;6271769;22;20368;-68
2023/10/06 11:20:44;;;;;;;10.48;4.20;;;26.30;99.90;;;;;;6271444;22;20719;-68
2023/10/06 11:23:10;;;;;;;11.82;3.85;;;26.30;99.90;;;;;;6270969;22;20387;-68
2023/10/06 11:25:45;;;;;;;10.13;3.50;;;26.20;99.90;;;;;;6271008;22;20701;-68
2023/10/06 11:28:12;;;;;;;8.30;2.88;;;24.90;99.90;;;;;;6270571;22;20360;-68
2023/10/06 11:30:40;;;;;;;12.98;3.42;;;24.60;99.90;;;;;;6271000;22;20371;-68
2023/10/06 11:33:08;;;;;;;11.13;3.72;;;24.70;99.90;;;;;;6271039;22;20360;-67
2023/10/06 11:35:36;;;;;;;10.07;2.78;;;24.50;99.90;;;;;;6271325;22;20409;-68
2023/10/06 11:38:11;;;;;;;10.98;3.20;;;24.60;99.90;;;;;;6271123;22;20363;-68
2023/10/06 11:40:38;;;;;;;9.45;3.30;;;24.50;99.90;;;;;;6270910;22;20510;-67
2023/10/06 11:43:13;;;;;;;9.80;2.80;;;24.50;99.90;;;;;;6270831;22;20361;-68
2023/10/06 11:45:41;;;;;;;6.85;2.42;;;24.10;99.90;;;;;;6271369;22;20455;-67
2023/10/06 11:48:28;;;;;;;8.95;3.20;;;24.00;99.90;;;;;;6268251;22;20368;-68
2023/10/06 11:51:06;;;;;;;11.53;3.23;;;24.10;99.90;;;;;;6271128;22;20360;-68
2023/10/06 11:53:33;;;;;;;8.82;2.60;;;24.40;99.90;;;;;;6270362;22;20418;-68
2023/10/06 11:56:05;;;;;;;9.52;2.78;;;24.20;99.90;;;;;;6270970;22;20429;-68
2023/10/06 11:58:36;;;;;;;10.43;3.17;;;24.30;99.90;;;;;;6270933;22;20396;-68
2023/10/06 12:01:03;;;;;;;10.20;3.20;;;24.00;99.90;;;;;;6270828;22;20360;-68
2023/10/06 12:03:34;;;;;;;8.48;2.38;;;23.90;99.90;;;;;;6269371;22;20834;-68
2023/10/06 12:06:00;;;;;;;8.50;2.60;;;24.50;99.90;;;;;;6270893;22;20435;-68
2023/10/06 12:08:26;;;;;;;7.53;2.83;;;25.00;99.90;;;;;;6270628;22;20477;-67
2023/10/06 12:10:52;;;;;;;9.10;3.50;;;24.80;99.90;;;;;;6271346;22;20437;-68
2023/10/06 12:13:20;;;;;;;8.50;2.70;;;24.60;99.90;;;;;;6271289;22;20402;-68
2023/10/06 12:15:46;;;;;;;7.85;3.00;;;24.40;99.90;;;;;;6270696;22;20447;-67
2023/10/06 12:18:13;;;;;;;9.82;3.30;;;24.00;99.90;;;;;;6270534;22;21127;-68
2023/10/06 12:20:40;;;;;;;10.13;2.80;;;23.90;99.90;;;;;;6270836;22;20361;-67
2023/10/06 12:23:06;;;;;;;9.52;2.80;;;24.10;99.90;;;;;;6270447;22;20364;-68
2023/10/06 12:25:31;;;;;;;10.65;3.00;;;24.30;99.90;;;;;;6270894;22;20790;-68
2023/10/06 12:27:59;;;;;;;9.82;2.60;;;24.40;99.90;;;;;;6270606;22;20384;-68
2023/10/06 12:30:26;;;;;;;8.02;3.25;;;24.00;99.90;;;;;;6270132;22;20483;-68
2023/10/06 12:32:54;;;;;;;8.90;3.17;;;23.80;99.90;;;;;;6270111;22;20432;-68
2023/10/06 12:35:20;;;;;;;9.43;3.17;;;24.10;99.90;;;;;;6270873;22;20366;-67
2023/10/06 12:37:46;;;;;;;8.82;3.00;;;24.20;99.90;;;;;;6269747;22;20396;-67
2023/10/06 12:40:14;;;;;;;8.50;2.80;;;24.20;99.90;;;;;;6269824;22;20398;-68
2023/10/06 12:42:43;;;;;;;9.13;2.85;;;24.00;99.90;;;;;;6270933;22;20360;-68
2023/10/06 12:45:13;;;;;;;11.27;3.10;;;23.90;99.90;;;;;;6271218;22;20859;-68
2023/10/06 12:47:39;;;;;;;9.23;2.90;;;24.20;99.90;;;;;;6270956;22;20372;-68
2023/10/06 12:50:08;;;;;;;10.05;2.70;;;24.30;99.90;;;;;;6270516;22;20471;-68
2023/10/06 12:52:37;;;;;;;8.90;3.10;;;24.00;99.90;;;;;;6270068;22;20356;-68
2023/10/06 12:55:10;;;;;;;9.30;3.63;;;23.90;99.90;;;;;;6270296;22;20384;-68
2023/10/06 12:57:38;;;;;;;8.20;3.00;;;23.70;99.90;;;;;;6241814;22;20372;-69
2023/10/06 13:00:04;;;;;;;12.47;3.10;;;23.60;99.90;;;;;;6268131;22;20856;-69
2023/10/06 13:02:31;;;;;;;9.68;3.35;;;23.60;99.90;;;;;;6267870;22;20387;-68
2023/10/06 13:05:08;;;;;;;9.30;2.55;;;23.70;99.90;;;;;;6267614;22;20368;-68
2023/10/06 13:07:35;;;;;;;8.45;2.95;;;23.60;99.90;;;;;;6268619;22;20361;-68
2023/10/06 13:10:06;;;;;;;12.55;3.50;;;23.70;99.90;;;;;;6270389;22;20384;-68
2023/10/06 13:12:39;;;;;;;10.55;2.63;;;23.80;99.90;;;;;;6269970;22;20360;-68
2023/10/06 13:15:06;;;;;;;8.20;3.03;;;24.00;99.90;;;;;;6269928;22;20368;-69